PWSweather.com
Personal Weather Stations
Station Observations
TARRYHILL
Tarrytown, NY 10591

Tarrytown, NY 10591

Lat: 41.05185, Lon: -73.85296

Elevation: 341

Station Type: Davis Vantage Vue

www.tarrytownnyweather.com

High Low Average
Temperature 57.3°F14.1°C 37.5°F3.1°C 46.2°F7.9°C
Dew Point 47.6°F8.7°C 17.8°F-7.9°C 39.3°F4.1°C
Winds 10.0 mph 16.1 kmh Calm Calm 2.0 mph SW3.2 kmh SW
Wind Gusts 19.0 mph30.6 kmh -- 5.0 mph8.0 kmh
Humidity 97% 24% 83%
Pressure 29.82 in1009.8 mb 29.44 in997.0 mb -
Precipitation 0.18 in4.6 mm - -
Hour Temp Dew Point Humidity Winds Wind Gusts Pressure Precip Precip Rate Daily Precip Total
12:00 AM 37.3°F2.9°C 35.4°F1.9°C 93% 2.1 mph NW3.4 kmh NW 4.0 mph6.4 kmh 29.87 in1011.5 mb 0.01 in0.3 mm 0.00 in/hr0.0 mm/hr 0.07 in1.8 mm
12:10 AM 37.2°F2.9°C 35.4°F1.9°C 93% 2.3 mph W3.7 kmh W 4.0 mph6.4 kmh 29.87 in1011.5 mb 0.01 in0.3 mm 0.06 in/hr1.5 mm/hr 0.08 in2.0 mm
12:20 AM 37.3°F2.9°C 35.7°F2.1°C 94% 1.8 mph E2.9 kmh E 2.0 mph3.2 kmh 29.86 in1011.2 mb 0.02 in0.5 mm 0.12 in/hr3.0 mm/hr 0.09 in2.3 mm
12:30 AM 37.3°F2.9°C 35.7°F2.1°C 94% 1.3 mph NE2.1 kmh NE 3.0 mph4.8 kmh 29.86 in1011.2 mb 0.02 in0.5 mm 0.12 in/hr3.0 mm/hr 0.11 in2.8 mm
12:40 AM 37.4°F3.0°C 35.8°F2.1°C 94% 2.9 mph NNE4.7 kmh NNE 4.0 mph6.4 kmh 29.84 in1010.5 mb 0.00 in0.0 mm 0.00 in/hr0.0 mm/hr 0.11 in2.8 mm
12:50 AM 37.4°F3.0°C 35.8°F2.1°C 94% 2.8 mph NW4.5 kmh NW 5.0 mph8.0 kmh 29.82 in1009.8 mb 0.02 in0.5 mm 0.12 in/hr3.0 mm/hr 0.13 in3.3 mm
01:00 AM 37.5°F3.1°C 35.9°F2.2°C 94% 3.6 mph ESE5.8 kmh ESE 6.0 mph9.7 kmh 29.82 in1009.8 mb 0.00 in0.0 mm 0.00 in/hr0.0 mm/hr 0.08 in2.0 mm
01:10 AM 37.6°F3.1°C 36.0°F2.2°C 94% 0.9 mph ESE1.4 kmh ESE 5.0 mph8.0 kmh 29.81 in1009.5 mb 0.01 in0.3 mm 0.06 in/hr1.5 mm/hr 0.01 in0.3 mm
01:20 AM 37.7°F3.2°C 36.4°F2.4°C 95% 1.4 mph NNW2.3 kmh NNW 4.0 mph6.4 kmh 29.79 in1008.8 mb 0.01 in0.3 mm 0.06 in/hr1.5 mm/hr 0.02 in0.5 mm
01:30 AM 37.8°F3.2°C 36.5°F2.5°C 95% 0.9 mph NW1.4 kmh NW 2.0 mph3.2 kmh 29.81 in1009.5 mb 0.00 in0.0 mm 0.00 in/hr0.0 mm/hr 0.02 in0.5 mm
01:40 AM 38.0°F3.3°C 36.7°F2.6°C 95% 2.8 mph SE4.5 kmh SE 6.0 mph9.7 kmh 29.82 in1009.8 mb 0.00 in0.0 mm 0.00 in/hr0.0 mm/hr 0.02 in0.5 mm
01:50 AM 38.1°F3.4°C 36.8°F2.7°C 95% 2.0 mph N3.2 kmh N 3.0 mph4.8 kmh 29.80 in1009.1 mb 0.02 in0.5 mm 0.12 in/hr3.0 mm/hr 0.04 in1.0 mm
02:00 AM 38.3°F3.5°C 36.9°F2.7°C 95% 0.3 mph NW0.5 kmh NW 1.0 mph1.6 kmh 29.80 in1009.1 mb 0.01 in0.3 mm 0.01 in/hr0.3 mm/hr 0.05 in1.3 mm
02:10 AM 38.3°F3.5°C 37.0°F2.8°C 95% 0.3 mph ESE0.5 kmh ESE -- 29.79 in1008.8 mb 0.01 in0.3 mm 0.06 in/hr1.5 mm/hr 0.06 in1.5 mm
02:20 AM 38.5°F3.6°C 37.2°F2.9°C 95% 0.3 mph NE0.5 kmh NE 1.0 mph1.6 kmh 29.77 in1008.1 mb 0.00 in0.0 mm 0.00 in/hr0.0 mm/hr 0.06 in1.5 mm
02:30 AM 38.6°F3.7°C 37.3°F2.9°C 95% 1.5 mph N2.4 kmh N 1.0 mph1.6 kmh 29.76 in1007.8 mb 0.01 in0.3 mm 0.06 in/hr1.5 mm/hr 0.07 in1.8 mm
02:40 AM 38.8°F3.8°C 37.5°F3.1°C 95% 0.1 mph NW0.2 kmh NW 1.0 mph1.6 kmh 29.74 in1007.1 mb 0.00 in0.0 mm 0.00 in/hr0.0 mm/hr 0.07 in1.8 mm
02:50 AM 39.1°F3.9°C 38.1°F3.4°C 96% 2.3 mph NW3.7 kmh NW 3.0 mph4.8 kmh 29.73 in1006.8 mb 0.00 in0.0 mm 0.00 in/hr0.0 mm/hr 0.07 in1.8 mm
03:00 AM 39.4°F4.1°C 38.4°F3.6°C 96% 1.0 mph NW1.6 kmh NW 2.0 mph3.2 kmh 29.73 in1006.8 mb 0.01 in0.3 mm 0.01 in/hr0.3 mm/hr 0.08 in2.0 mm
03:10 AM 39.7°F4.3°C 38.7°F3.7°C 96% 1.7 mph W2.7 kmh W 5.0 mph8.0 kmh 29.72 in1006.4 mb 0.00 in0.0 mm 0.00 in/hr0.0 mm/hr 0.08 in2.0 mm
03:20 AM 40.0°F4.4°C 39.0°F3.9°C 96% 1.2 mph NW1.9 kmh NW 3.0 mph4.8 kmh 29.71 in1006.1 mb 0.00 in0.0 mm 0.00 in/hr0.0 mm/hr 0.08 in2.0 mm
03:30 AM 40.3°F4.6°C 39.2°F4.0°C 96% 1.7 mph NE2.7 kmh NE 4.0 mph6.4 kmh 29.70 in1005.8 mb 0.00 in0.0 mm 0.00 in/hr0.0 mm/hr 0.08 in2.0 mm
03:40 AM 40.5°F4.7°C 39.4°F4.1°C 96% 1.1 mph NW1.8 kmh NW 2.0 mph3.2 kmh 29.70 in1005.8 mb 0.00 in0.0 mm 0.00 in/hr0.0 mm/hr 0.08 in2.0 mm
03:50 AM 40.7°F4.8°C 39.6°F4.2°C 96% 2.3 mph NNE3.7 kmh NNE 3.0 mph4.8 kmh 29.69 in1005.4 mb 0.00 in0.0 mm 0.00 in/hr0.0 mm/hr 0.08 in2.0 mm
04:00 AM 40.9°F4.9°C 39.8°F4.3°C 96% 0.4 mph N0.6 kmh N 2.0 mph3.2 kmh 29.68 in1005.1 mb 0.00 in0.0 mm 0.00 in/hr0.0 mm/hr 0.08 in2.0 mm
04:10 AM 41.1°F5.1°C 40.1°F4.5°C 96% 0.5 mph NW0.8 kmh NW 1.0 mph1.6 kmh 29.66 in1004.4 mb 0.01 in0.3 mm 0.06 in/hr1.5 mm/hr 0.09 in2.3 mm
04:20 AM 41.3°F5.2°C 40.2°F4.6°C 96% 4.0 mph NE6.4 kmh NE 5.0 mph8.0 kmh 29.65 in1004.1 mb 0.00 in0.0 mm 0.00 in/hr0.0 mm/hr 0.09 in2.3 mm
04:30 AM 41.4°F5.2°C 40.3°F4.6°C 96% 1.4 mph N2.3 kmh N 3.0 mph4.8 kmh 29.64 in1003.7 mb 0.00 in0.0 mm 0.00 in/hr0.0 mm/hr 0.09 in2.3 mm
04:40 AM 41.5°F5.3°C 40.5°F4.7°C 96% 0.7 mph W1.1 kmh W 2.0 mph3.2 kmh 29.63 in1003.4 mb 0.00 in0.0 mm 0.00 in/hr0.0 mm/hr 0.09 in2.3 mm
04:50 AM 41.7°F5.4°C 40.6°F4.8°C 96% 0.7 mph NW1.1 kmh NW 2.0 mph3.2 kmh 29.63 in1003.4 mb 0.00 in0.0 mm 0.00 in/hr0.0 mm/hr 0.09 in2.3 mm
05:00 AM 41.9°F5.5°C 40.8°F4.9°C 96% 0.4 mph ESE0.6 kmh ESE 4.0 mph6.4 kmh 29.62 in1003.0 mb 0.00 in0.0 mm 0.00 in/hr0.0 mm/hr 0.09 in2.3 mm
05:10 AM 42.1°F5.6°C 41.0°F5.0°C 96% 1.3 mph NNE2.1 kmh NNE 6.0 mph9.7 kmh 29.62 in1003.0 mb 0.00 in0.0 mm 0.00 in/hr0.0 mm/hr 0.09 in2.3 mm
05:20 AM 42.3°F5.7°C 41.2°F5.1°C 96% 1.2 mph NW1.9 kmh NW 2.0 mph3.2 kmh 29.62 in1003.0 mb 0.00 in0.0 mm 0.00 in/hr0.0 mm/hr 0.09 in2.3 mm
05:30 AM 42.4°F5.8°C 41.3°F5.2°C 96% 0.5 mph WNW0.8 kmh WNW 2.0 mph3.2 kmh 29.64 in1003.7 mb 0.00 in0.0 mm 0.00 in/hr0.0 mm/hr 0.09 in2.3 mm
05:40 AM 42.5°F5.8°C 41.4°F5.2°C 96% 0.7 mph N1.1 kmh N 1.0 mph1.6 kmh 29.63 in1003.4 mb 0.00 in0.0 mm 0.00 in/hr0.0 mm/hr 0.09 in2.3 mm
05:50 AM 42.6°F5.9°C 41.5°F5.3°C 96% 2.0 mph NNE3.2 kmh NNE 4.0 mph6.4 kmh 29.61 in1002.7 mb 0.00 in0.0 mm 0.00 in/hr0.0 mm/hr 0.09 in2.3 mm
06:00 AM 42.7°F5.9°C 41.6°F5.3°C 96% 0.7 mph NNW1.1 kmh NNW 3.0 mph4.8 kmh 29.62 in1003.0 mb 0.00 in0.0 mm 0.00 in/hr0.0 mm/hr 0.09 in2.3 mm
06:10 AM 42.8°F6.0°C 41.7°F5.4°C 96% 2.5 mph NNW4.0 kmh NNW 6.0 mph9.7 kmh 29.61 in1002.7 mb 0.00 in0.0 mm 0.00 in/hr0.0 mm/hr 0.09 in2.3 mm
06:20 AM 42.9°F6.1°C 41.8°F5.4°C 96% 1.3 mph NNE2.1 kmh NNE 3.0 mph4.8 kmh 29.58 in1001.7 mb 0.00 in0.0 mm 0.00 in/hr0.0 mm/hr 0.09 in2.3 mm
06:30 AM 43.1°F6.2°C 42.0°F5.6°C 96% 2.3 mph NW3.7 kmh NW 4.0 mph6.4 kmh 29.57 in1001.4 mb 0.00 in0.0 mm 0.00 in/hr0.0 mm/hr 0.09 in2.3 mm
06:40 AM 43.2°F6.2°C 42.1°F5.6°C 96% 0.1 mph WNW0.2 kmh WNW 1.0 mph1.6 kmh 29.57 in1001.4 mb 0.00 in0.0 mm 0.00 in/hr0.0 mm/hr 0.09 in2.3 mm
06:50 AM 43.2°F6.2°C 42.1°F5.6°C 96% 1.0 mph N1.6 kmh N 3.0 mph4.8 kmh 29.55 in1000.7 mb 0.00 in0.0 mm 0.00 in/hr0.0 mm/hr 0.09 in2.3 mm
07:00 AM 43.2°F6.2°C 42.1°F5.6°C 96% 2.9 mph ENE4.7 kmh ENE 6.0 mph9.7 kmh 29.54 in1000.3 mb 0.00 in0.0 mm 0.00 in/hr0.0 mm/hr 0.09 in2.3 mm
07:10 AM 43.2°F6.2°C 42.2°F5.7°C 96% 0.8 mph N1.3 kmh N 5.0 mph8.0 kmh 29.54 in1000.3 mb 0.00 in0.0 mm 0.00 in/hr0.0 mm/hr 0.09 in2.3 mm
07:20 AM 43.4°F6.3°C 42.3°F5.7°C 96% 2.5 mph NE4.0 kmh NE 3.0 mph4.8 kmh 29.52 in999.7 mb 0.00 in0.0 mm 0.00 in/hr0.0 mm/hr 0.09 in2.3 mm
07:30 AM 43.5°F6.4°C 42.4°F5.8°C 96% Calm Calm -- 29.53 in1000.0 mb 0.00 in0.0 mm 0.00 in/hr0.0 mm/hr 0.09 in2.3 mm
07:40 AM 43.6°F6.4°C 42.8°F6.0°C 97% 0.3 mph NE0.5 kmh NE 1.0 mph1.6 kmh 29.55 in1000.7 mb 0.00 in0.0 mm 0.00 in/hr0.0 mm/hr 0.09 in2.3 mm
07:50 AM 43.6°F6.4°C 42.8°F6.0°C 97% Calm Calm -- 29.54 in1000.3 mb 0.00 in0.0 mm 0.00 in/hr0.0 mm/hr 0.09 in2.3 mm
08:00 AM 43.5°F6.4°C 42.7°F5.9°C 97% 1.4 mph NW2.3 kmh NW 2.0 mph3.2 kmh 29.52 in999.7 mb 0.00 in0.0 mm 0.00 in/hr0.0 mm/hr 0.09 in2.3 mm
08:10 AM 43.5°F6.4°C 42.7°F5.9°C 97% 0.4 mph NW0.6 kmh NW 1.0 mph1.6 kmh 29.53 in1000.0 mb 0.00 in0.0 mm 0.00 in/hr0.0 mm/hr 0.09 in2.3 mm
08:20 AM 43.6°F6.4°C 42.8°F6.0°C 97% Calm Calm -- 29.53 in1000.0 mb 0.01 in0.3 mm 0.06 in/hr1.5 mm/hr 0.10 in2.5 mm
08:30 AM 43.7°F6.5°C 42.9°F6.1°C 97% Calm Calm -- 29.52 in999.7 mb 0.01 in0.3 mm 0.06 in/hr1.5 mm/hr 0.10 in2.5 mm
08:40 AM 43.8°F6.6°C 43.0°F6.1°C 97% 0.2 mph N0.3 kmh N 1.0 mph1.6 kmh 29.52 in999.7 mb 0.00 in0.0 mm 0.00 in/hr0.0 mm/hr 0.10 in2.5 mm
08:50 AM 43.9°F6.6°C 43.1°F6.2°C 97% Calm Calm -- 29.52 in999.7 mb 0.00 in0.0 mm 0.00 in/hr0.0 mm/hr 0.10 in2.5 mm
09:00 AM 43.8°F6.6°C 43.0°F6.1°C 97% Calm Calm -- 29.51 in999.3 mb 0.00 in0.0 mm 0.00 in/hr0.0 mm/hr 0.10 in2.5 mm
09:10 AM 44.0°F6.7°C 43.2°F6.2°C 97% Calm Calm 1.0 mph1.6 kmh 29.51 in999.3 mb 0.01 in0.3 mm 0.06 in/hr1.5 mm/hr 0.11 in2.8 mm
09:20 AM 43.9°F6.6°C 43.1°F6.2°C 97% 0.9 mph WSW1.4 kmh WSW 2.0 mph3.2 kmh 29.52 in999.7 mb 0.00 in0.0 mm 0.00 in/hr0.0 mm/hr 0.11 in2.8 mm
09:30 AM 43.3°F6.3°C 42.2°F5.7°C 96% 1.0 mph W1.6 kmh W 1.0 mph1.6 kmh 29.52 in999.7 mb 0.00 in0.0 mm 0.00 in/hr0.0 mm/hr 0.11 in2.8 mm
09:40 AM 42.8°F6.0°C 41.7°F5.4°C 96% 0.2 mph NE0.3 kmh NE 1.0 mph1.6 kmh 29.52 in999.7 mb 0.00 in0.0 mm 0.00 in/hr0.0 mm/hr 0.11 in2.8 mm
09:50 AM 42.8°F6.0°C 41.7°F5.4°C 96% 0.1 mph NE0.2 kmh NE 1.0 mph1.6 kmh 29.52 in999.7 mb 0.00 in0.0 mm 0.00 in/hr0.0 mm/hr 0.11 in2.8 mm
10:00 AM 42.8°F6.0°C 41.7°F5.4°C 96% Calm Calm -- 29.51 in999.3 mb 0.00 in0.0 mm 0.00 in/hr0.0 mm/hr 0.11 in2.8 mm
10:10 AM 42.9°F6.1°C 41.8°F5.4°C 96% Calm Calm -- 29.52 in999.7 mb 0.00 in0.0 mm 0.00 in/hr0.0 mm/hr 0.11 in2.8 mm
10:20 AM 42.9°F6.1°C 42.1°F5.6°C 97% 0.2 mph WSW0.3 kmh WSW 2.0 mph3.2 kmh 29.52 in999.7 mb 0.00 in0.0 mm 0.00 in/hr0.0 mm/hr 0.11 in2.8 mm
10:30 AM 43.0°F6.1°C 42.2°F5.7°C 97% 0.1 mph WSW0.2 kmh WSW -- 29.52 in999.7 mb 0.01 in0.3 mm 0.06 in/hr1.5 mm/hr 0.12 in3.0 mm
10:40 AM 43.1°F6.2°C 42.3°F5.7°C 97% Calm Calm -- 29.51 in999.3 mb 0.02 in0.5 mm 0.12 in/hr3.0 mm/hr 0.14 in3.6 mm
10:50 AM 43.4°F6.3°C 42.6°F5.9°C 97% 0.3 mph SW0.5 kmh SW -- 29.52 in999.7 mb 0.01 in0.3 mm 0.06 in/hr1.5 mm/hr 0.15 in3.8 mm
11:00 AM 43.6°F6.4°C 42.8°F6.0°C 97% Calm Calm -- 29.51 in999.3 mb 0.01 in0.3 mm 0.01 in/hr0.3 mm/hr 0.16 in4.1 mm
11:10 AM 43.8°F6.6°C 43.0°F6.1°C 97% 0.6 mph S1.0 kmh S 1.0 mph1.6 kmh 29.51 in999.3 mb 0.01 in0.3 mm 0.06 in/hr1.5 mm/hr 0.17 in4.3 mm
11:20 AM 43.8°F6.6°C 43.0°F6.1°C 97% 2.2 mph S3.5 kmh S 4.0 mph6.4 kmh 29.52 in999.7 mb 0.00 in0.0 mm 0.00 in/hr0.0 mm/hr 0.17 in4.3 mm
11:30 AM 43.6°F6.4°C 42.8°F6.0°C 97% 1.3 mph SW2.1 kmh SW 2.0 mph3.2 kmh 29.51 in999.3 mb 0.00 in0.0 mm 0.00 in/hr0.0 mm/hr 0.17 in4.3 mm
11:40 AM 43.7°F6.5°C 42.9°F6.1°C 97% Calm Calm 1.0 mph1.6 kmh 29.51 in999.3 mb 0.01 in0.3 mm 0.06 in/hr1.5 mm/hr 0.18 in4.6 mm
11:50 AM 44.6°F7.0°C 43.8°F6.6°C 97% 1.6 mph SW2.6 kmh SW 3.0 mph4.8 kmh 29.51 in999.3 mb 0.00 in0.0 mm 0.00 in/hr0.0 mm/hr 0.18 in4.6 mm
12:00 PM 45.1°F7.3°C 44.3°F6.8°C 97% 2.2 mph SW3.5 kmh SW 4.0 mph6.4 kmh 29.51 in999.3 mb 0.00 in0.0 mm 0.00 in/hr0.0 mm/hr 0.18 in4.6 mm
12:10 PM 45.3°F7.4°C 44.5°F6.9°C 97% 0.8 mph S1.3 kmh S 4.0 mph6.4 kmh 29.50 in999.0 mb 0.00 in0.0 mm 0.00 in/hr0.0 mm/hr 0.18 in4.6 mm
12:20 PM 45.7°F7.6°C 44.9°F7.2°C 97% 1.7 mph SSW2.7 kmh SSW 3.0 mph4.8 kmh 29.51 in999.3 mb 0.00 in0.0 mm 0.00 in/hr0.0 mm/hr 0.18 in4.6 mm
12:30 PM 45.8°F7.7°C 45.0°F7.2°C 97% 0.9 mph SSW1.4 kmh SSW 2.0 mph3.2 kmh 29.51 in999.3 mb 0.00 in0.0 mm 0.00 in/hr0.0 mm/hr 0.18 in4.6 mm
12:40 PM 45.9°F7.7°C 45.1°F7.3°C 97% 3.4 mph S5.5 kmh S 5.0 mph8.0 kmh 29.50 in999.0 mb 0.00 in0.0 mm 0.00 in/hr0.0 mm/hr 0.18 in4.6 mm
12:50 PM 46.4°F8.0°C 45.6°F7.6°C 97% 2.1 mph S3.4 kmh S 4.0 mph6.4 kmh 29.50 in999.0 mb 0.00 in0.0 mm 0.00 in/hr0.0 mm/hr 0.18 in4.6 mm
01:00 PM 47.0°F8.3°C 46.2°F7.9°C 97% 2.4 mph SW3.9 kmh SW 5.0 mph8.0 kmh 29.49 in998.6 mb 0.00 in0.0 mm 0.00 in/hr0.0 mm/hr 0.18 in4.6 mm
01:10 PM 47.5°F8.6°C 46.7°F8.2°C 97% 2.9 mph S4.7 kmh S 6.0 mph9.7 kmh 29.48 in998.3 mb 0.00 in0.0 mm 0.00 in/hr0.0 mm/hr 0.18 in4.6 mm
01:20 PM 47.9°F8.8°C 47.1°F8.4°C 97% 3.6 mph SSW5.8 kmh SSW 7.0 mph11.3 kmh 29.47 in998.0 mb 0.00 in0.0 mm 0.00 in/hr0.0 mm/hr 0.18 in4.6 mm
01:30 PM 48.1°F8.9°C 47.2°F8.4°C 97% 5.5 mph SSW8.9 kmh SSW 8.0 mph12.9 kmh 29.47 in998.0 mb 0.00 in0.0 mm 0.00 in/hr0.0 mm/hr 0.18 in4.6 mm
01:40 PM 48.4°F9.1°C 47.3°F8.5°C 96% 3.1 mph SE5.0 kmh SE 4.0 mph6.4 kmh 29.47 in998.0 mb 0.00 in0.0 mm 0.00 in/hr0.0 mm/hr 0.18 in4.6 mm
01:50 PM 48.7°F9.3°C 47.6°F8.7°C 96% 4.2 mph SSW6.8 kmh SSW 8.0 mph12.9 kmh 29.47 in998.0 mb 0.00 in0.0 mm 0.00 in/hr0.0 mm/hr 0.18 in4.6 mm
02:00 PM 48.8°F9.3°C 47.4°F8.6°C 95% 3.8 mph SSW6.1 kmh SSW 7.0 mph11.3 kmh 29.46 in997.6 mb 0.00 in0.0 mm 0.00 in/hr0.0 mm/hr 0.18 in4.6 mm
02:10 PM 49.2°F9.6°C 47.5°F8.6°C 94% 2.7 mph S4.3 kmh S 5.0 mph8.0 kmh 29.46 in997.6 mb 0.00 in0.0 mm 0.00 in/hr0.0 mm/hr 0.18 in4.6 mm
02:20 PM 49.3°F9.6°C 47.1°F8.4°C 92% 3.5 mph SW5.6 kmh SW 4.0 mph6.4 kmh 29.45 in997.3 mb 0.00 in0.0 mm 0.00 in/hr0.0 mm/hr 0.18 in4.6 mm
02:30 PM 49.5°F9.7°C 46.7°F8.2°C 90% 4.1 mph S6.6 kmh S 5.0 mph8.0 kmh 29.45 in997.3 mb 0.00 in0.0 mm 0.00 in/hr0.0 mm/hr 0.18 in4.6 mm
02:40 PM 49.9°F9.9°C 46.5°F8.1°C 88% 3.6 mph SW5.8 kmh SW 7.0 mph11.3 kmh 29.44 in997.0 mb 0.00 in0.0 mm 0.00 in/hr0.0 mm/hr 0.18 in4.6 mm
02:50 PM 50.5°F10.3°C 46.4°F8.0°C 86% 2.6 mph S4.2 kmh S 9.0 mph14.5 kmh 29.45 in997.3 mb 0.00 in0.0 mm 0.00 in/hr0.0 mm/hr 0.18 in4.6 mm
03:00 PM 52.0°F11.1°C 46.0°F7.8°C 80% 7.9 mph SW12.7 kmh SW 10.0 mph16.1 kmh 29.46 in997.6 mb 0.00 in0.0 mm 0.00 in/hr0.0 mm/hr 0.18 in4.6 mm
03:10 PM 52.6°F11.4°C 45.6°F7.6°C 77% 2.9 mph SW4.7 kmh SW 7.0 mph11.3 kmh 29.46 in997.6 mb 0.00 in0.0 mm 0.00 in/hr0.0 mm/hr 0.18 in4.6 mm
03:20 PM 52.5°F11.4°C 44.8°F7.1°C 75% 2.9 mph SW4.7 kmh SW 5.0 mph8.0 kmh 29.45 in997.3 mb 0.00 in0.0 mm 0.00 in/hr0.0 mm/hr 0.18 in4.6 mm
03:30 PM 53.0°F11.7°C 42.7°F5.9°C 68% 6.6 mph S10.6 kmh S 8.0 mph12.9 kmh 29.45 in997.3 mb 0.00 in0.0 mm 0.00 in/hr0.0 mm/hr 0.18 in4.6 mm
03:40 PM 54.2°F12.3°C 42.7°F5.9°C 65% 5.7 mph SW9.2 kmh SW 12.0 mph19.3 kmh 29.46 in997.6 mb 0.00 in0.0 mm 0.00 in/hr0.0 mm/hr 0.18 in4.6 mm
03:50 PM 54.5°F12.5°C 41.8°F5.4°C 62% 5.4 mph SW8.7 kmh SW 18.0 mph29.0 kmh 29.46 in997.6 mb 0.00 in0.0 mm 0.00 in/hr0.0 mm/hr 0.18 in4.6 mm
04:00 PM 55.0°F12.8°C 41.0°F5.0°C 59% 3.5 mph SW5.6 kmh SW 10.0 mph16.1 kmh 29.46 in997.6 mb 0.00 in0.0 mm 0.00 in/hr0.0 mm/hr 0.18 in4.6 mm
04:10 PM 55.7°F13.2°C 39.7°F4.3°C 55% 4.6 mph SE7.4 kmh SE 18.0 mph29.0 kmh 29.46 in997.6 mb 0.00 in0.0 mm 0.00 in/hr0.0 mm/hr 0.18 in4.6 mm
04:20 PM 55.9°F13.3°C 38.5°F3.6°C 52% 5.5 mph WSW8.9 kmh WSW 16.0 mph25.7 kmh 29.46 in997.6 mb 0.00 in0.0 mm 0.00 in/hr0.0 mm/hr 0.18 in4.6 mm
04:30 PM 56.0°F13.3°C 35.5°F1.9°C 46% 5.9 mph S9.5 kmh S 9.0 mph14.5 kmh 29.45 in997.3 mb 0.00 in0.0 mm 0.00 in/hr0.0 mm/hr 0.18 in4.6 mm
04:40 PM 56.6°F13.7°C 35.0°F1.7°C 44% 5.0 mph SSW8.0 kmh SSW 10.0 mph16.1 kmh 29.46 in997.6 mb 0.00 in0.0 mm 0.00 in/hr0.0 mm/hr 0.18 in4.6 mm
04:50 PM 56.3°F13.5°C 34.1°F1.2°C 43% 5.5 mph WSW8.9 kmh WSW 9.0 mph14.5 kmh 29.46 in997.6 mb 0.00 in0.0 mm 0.00 in/hr0.0 mm/hr 0.18 in4.6 mm
05:00 PM 56.5°F13.6°C 31.8°F-0.1°C 39% 5.9 mph SW9.5 kmh SW 14.0 mph22.5 kmh 29.47 in998.0 mb 0.00 in0.0 mm 0.00 in/hr0.0 mm/hr 0.18 in4.6 mm
05:10 PM 57.2°F14.0°C 27.6°F-2.4°C 32% 6.2 mph WSW10.0 kmh WSW 11.0 mph17.7 kmh 29.47 in998.0 mb 0.00 in0.0 mm 0.00 in/hr0.0 mm/hr 0.18 in4.6 mm
05:20 PM 57.3°F14.1°C 24.4°F-4.2°C 28% 10.0 mph SW16.1 kmh SW 19.0 mph30.6 kmh 29.47 in998.0 mb 0.00 in0.0 mm 0.00 in/hr0.0 mm/hr 0.18 in4.6 mm
05:30 PM 57.1°F13.9°C 25.1°F-3.8°C 29% 6.5 mph SW10.5 kmh SW 14.0 mph22.5 kmh 29.48 in998.3 mb 0.00 in0.0 mm 0.00 in/hr0.0 mm/hr 0.18 in4.6 mm
05:40 PM 56.8°F13.8°C 27.3°F-2.6°C 32% 4.2 mph S6.8 kmh S 13.0 mph20.9 kmh 29.48 in998.3 mb 0.00 in0.0 mm 0.00 in/hr0.0 mm/hr 0.18 in4.6 mm
05:50 PM 56.8°F13.8°C 26.4°F-3.1°C 31% 8.9 mph WSW14.3 kmh WSW 13.0 mph20.9 kmh 29.48 in998.3 mb 0.00 in0.0 mm 0.00 in/hr0.0 mm/hr 0.18 in4.6 mm
06:00 PM 56.7°F13.7°C 27.9°F-2.3°C 33% 4.9 mph SW7.9 kmh SW 12.0 mph19.3 kmh 29.50 in999.0 mb 0.00 in0.0 mm 0.00 in/hr0.0 mm/hr 0.18 in4.6 mm
06:10 PM 56.2°F13.4°C 26.7°F-2.9°C 32% 4.3 mph WSW6.9 kmh WSW 6.0 mph9.7 kmh 29.50 in999.0 mb 0.00 in0.0 mm 0.00 in/hr0.0 mm/hr 0.18 in4.6 mm
06:20 PM 56.0°F13.3°C 25.7°F-3.5°C 31% 3.6 mph WSW5.8 kmh WSW 5.0 mph8.0 kmh 29.50 in999.0 mb 0.00 in0.0 mm 0.00 in/hr0.0 mm/hr 0.18 in4.6 mm
06:30 PM 55.6°F13.1°C 25.4°F-3.7°C 31% 4.4 mph SW7.1 kmh SW 10.0 mph16.1 kmh 29.51 in999.3 mb 0.00 in0.0 mm 0.00 in/hr0.0 mm/hr 0.18 in4.6 mm
06:40 PM 55.3°F12.9°C 24.3°F-4.3°C 30% 4.8 mph SW7.7 kmh SW 11.0 mph17.7 kmh 29.52 in999.7 mb 0.00 in0.0 mm 0.00 in/hr0.0 mm/hr 0.18 in4.6 mm
06:50 PM 54.9°F12.7°C 22.4°F-5.3°C 28% 9.1 mph SW14.6 kmh SW 12.0 mph19.3 kmh 29.53 in1000.0 mb 0.00 in0.0 mm 0.00 in/hr0.0 mm/hr 0.18 in4.6 mm
07:00 PM 54.8°F12.7°C 18.6°F-7.4°C 24% 8.4 mph WSW13.5 kmh WSW 15.0 mph24.1 kmh 29.54 in1000.3 mb 0.00 in0.0 mm 0.00 in/hr0.0 mm/hr 0.18 in4.6 mm
07:10 PM 54.6°F12.6°C 18.5°F-7.5°C 24% 5.5 mph WSW8.9 kmh WSW 12.0 mph19.3 kmh 29.55 in1000.7 mb 0.00 in0.0 mm 0.00 in/hr0.0 mm/hr 0.18 in4.6 mm
07:20 PM 54.2°F12.3°C 18.1°F-7.7°C 24% 5.3 mph WSW8.5 kmh WSW 7.0 mph11.3 kmh 29.56 in1001.0 mb 0.00 in0.0 mm 0.00 in/hr0.0 mm/hr 0.18 in4.6 mm
07:30 PM 53.8°F12.1°C 17.8°F-7.9°C 24% 5.0 mph WSW8.0 kmh WSW 8.0 mph12.9 kmh 29.58 in1001.7 mb 0.00 in0.0 mm 0.00 in/hr0.0 mm/hr 0.18 in4.6 mm
07:40 PM 53.4°F11.9°C 18.4°F-7.6°C 25% 2.4 mph WSW3.9 kmh WSW 5.0 mph8.0 kmh 29.58 in1001.7 mb 0.00 in0.0 mm 0.00 in/hr0.0 mm/hr 0.18 in4.6 mm
07:50 PM 52.8°F11.6°C 19.7°F-6.8°C 27% 3.2 mph S5.1 kmh S 13.0 mph20.9 kmh 29.58 in1001.7 mb 0.00 in0.0 mm 0.00 in/hr0.0 mm/hr 0.18 in4.6 mm
08:00 PM 52.9°F11.6°C 18.0°F-7.8°C 25% 7.3 mph WNW11.7 kmh WNW 10.0 mph16.1 kmh 29.59 in1002.0 mb 0.00 in0.0 mm 0.00 in/hr0.0 mm/hr 0.18 in4.6 mm
08:10 PM 52.5°F11.4°C 18.6°F-7.4°C 26% 7.1 mph SSW11.4 kmh SSW 12.0 mph19.3 kmh 29.59 in1002.0 mb 0.00 in0.0 mm 0.00 in/hr0.0 mm/hr 0.18 in4.6 mm
08:20 PM 52.7°F11.5°C 18.7°F-7.4°C 26% 4.3 mph WSW6.9 kmh WSW 7.0 mph11.3 kmh 29.59 in1002.0 mb 0.00 in0.0 mm 0.00 in/hr0.0 mm/hr 0.18 in4.6 mm
08:30 PM 52.3°F11.3°C 18.4°F-7.6°C 26% 5.9 mph SW9.5 kmh SW 14.0 mph22.5 kmh 29.59 in1002.0 mb 0.00 in0.0 mm 0.00 in/hr0.0 mm/hr 0.18 in4.6 mm
08:40 PM 51.8°F11.0°C 18.8°F-7.3°C 27% 3.6 mph WSW5.8 kmh WSW 5.0 mph8.0 kmh 29.59 in1002.0 mb 0.00 in0.0 mm 0.00 in/hr0.0 mm/hr 0.18 in4.6 mm
08:50 PM 51.4°F10.8°C 19.4°F-7.0°C 28% 7.1 mph S11.4 kmh S 13.0 mph20.9 kmh 29.61 in1002.7 mb 0.00 in0.0 mm 0.00 in/hr0.0 mm/hr 0.18 in4.6 mm
09:00 PM 51.2°F10.7°C 20.0°F-6.7°C 29% 7.9 mph WNW12.7 kmh WNW 13.0 mph20.9 kmh 29.61 in1002.7 mb 0.00 in0.0 mm 0.00 in/hr0.0 mm/hr 0.18 in4.6 mm
09:10 PM 51.0°F10.6°C 19.8°F-6.8°C 29% 9.4 mph W15.1 kmh W 15.0 mph24.1 kmh 29.61 in1002.7 mb 0.00 in0.0 mm 0.00 in/hr0.0 mm/hr 0.18 in4.6 mm
09:20 PM 50.6°F10.3°C 21.0°F-6.1°C 31% 6.5 mph WSW10.5 kmh WSW 10.0 mph16.1 kmh 29.62 in1003.0 mb 0.00 in0.0 mm 0.00 in/hr0.0 mm/hr 0.18 in4.6 mm
09:30 PM 50.1°F10.1°C 21.4°F-5.9°C 32% 3.4 mph S5.5 kmh S 3.0 mph4.8 kmh 29.62 in1003.0 mb 0.00 in0.0 mm 0.00 in/hr0.0 mm/hr 0.18 in4.6 mm
09:40 PM 49.4°F9.7°C 22.8°F-5.1°C 35% 2.5 mph S4.0 kmh S 3.0 mph4.8 kmh 29.63 in1003.4 mb 0.00 in0.0 mm 0.00 in/hr0.0 mm/hr 0.18 in4.6 mm
09:50 PM 49.3°F9.6°C 23.5°F-4.7°C 36% 5.5 mph SSW8.9 kmh SSW 19.0 mph30.6 kmh 29.64 in1003.7 mb 0.00 in0.0 mm 0.00 in/hr0.0 mm/hr 0.18 in4.6 mm
10:00 PM 49.1°F9.5°C 23.3°F-4.8°C 36% 5.6 mph NW9.0 kmh NW 14.0 mph22.5 kmh 29.64 in1003.7 mb 0.00 in0.0 mm 0.00 in/hr0.0 mm/hr 0.18 in4.6 mm
10:10 PM 48.5°F9.2°C 24.0°F-4.4°C 38% 5.1 mph NE8.2 kmh NE 6.0 mph9.7 kmh 29.65 in1004.1 mb 0.00 in0.0 mm 0.00 in/hr0.0 mm/hr 0.18 in4.6 mm
10:20 PM 48.2°F9.0°C 23.7°F-4.6°C 38% 6.9 mph WNW11.1 kmh WNW 12.0 mph19.3 kmh 29.65 in1004.1 mb 0.00 in0.0 mm 0.00 in/hr0.0 mm/hr 0.18 in4.6 mm
10:30 PM 47.8°F8.8°C 24.0°F-4.4°C 39% 4.0 mph SW6.4 kmh SW 10.0 mph16.1 kmh 29.66 in1004.4 mb 0.00 in0.0 mm 0.00 in/hr0.0 mm/hr 0.18 in4.6 mm
10:40 PM 47.4°F8.6°C 24.3°F-4.3°C 40% 4.0 mph SW6.4 kmh SW 8.0 mph12.9 kmh 29.66 in1004.4 mb 0.00 in0.0 mm 0.00 in/hr0.0 mm/hr 0.18 in4.6 mm
10:50 PM 47.0°F8.3°C 23.9°F-4.5°C 40% 9.0 mph S14.5 kmh S 19.0 mph30.6 kmh 29.66 in1004.4 mb 0.00 in0.0 mm 0.00 in/hr0.0 mm/hr 0.18 in4.6 mm
11:00 PM 46.5°F8.1°C 24.0°F-4.4°C 41% 5.3 mph SW8.5 kmh SW 8.0 mph12.9 kmh 29.67 in1004.7 mb 0.00 in0.0 mm 0.00 in/hr0.0 mm/hr 0.18 in4.6 mm
11:10 PM 46.3°F7.9°C 23.8°F-4.6°C 41% 5.8 mph SW9.3 kmh SW 8.0 mph12.9 kmh 29.68 in1005.1 mb 0.00 in0.0 mm 0.00 in/hr0.0 mm/hr 0.18 in4.6 mm
11:20 PM 46.1°F7.8°C 23.7°F-4.6°C 41% 3.8 mph SE6.1 kmh SE 8.0 mph12.9 kmh 29.67 in1004.7 mb 0.00 in0.0 mm 0.00 in/hr0.0 mm/hr 0.18 in4.6 mm
11:30 PM 45.6°F7.6°C 23.8°F-4.6°C 42% 4.1 mph SSW6.6 kmh SSW 7.0 mph11.3 kmh 29.66 in1004.4 mb 0.00 in0.0 mm 0.00 in/hr0.0 mm/hr 0.18 in4.6 mm
11:40 PM 45.5°F7.5°C 22.6°F-5.2°C 40% 4.5 mph SSW7.2 kmh SSW 7.0 mph11.3 kmh 29.67 in1004.7 mb 0.00 in0.0 mm 0.00 in/hr0.0 mm/hr 0.18 in4.6 mm
11:50 PM 45.2°F7.3°C 22.9°F-5.1°C 41% 2.6 mph SW4.2 kmh SW 4.0 mph6.4 kmh 29.67 in1004.7 mb 0.00 in0.0 mm 0.00 in/hr0.0 mm/hr 0.18 in4.6 mm